Huvudsida
METAR-TAF:

METAR-TAF

Flygplatser :

Forūdgāh-e Shahr-e Kord

Shar-e Kord, Iran

latitud: 32-20N, longitud: 050-51E, höjd: 2078 m

Aktuellt väderrapport

Denna rapport gjordes för 1 timme och 7 minuter sedan, klockan 12:00 UTC
Vind 14 kt från sydväst
Temperatur 12°C
Fuktighet 32%
Tryck 1021 hPa
Sikt 10 km eller mer
Spridda moln på en höjd av 4000 ft

METAR: OIFS 221200Z 22014KT 9999 SCT040 12/M04 Q1021

Tid: 16:37 (13:07 UTC)


TAF: saknas

Aktuella väderrapporter och prognoser från 4000 flygplatser (METAR- och TAF-rapporter).

De tillgängliga stationerna syns som gula och röda prickar på kartan.

För musen över prickarna för att se namnen på stationerna.

Klicka sedan för att få väderrapporter och prognoser.

För att ändra kartan: Klicka på de gröna knapparna med ett svart kors på för att zooma in; den gröna knappen med ett streck på för att zooma ut; eller på de gröna pilarna för angränsande kartor.


METAR-TAF: